Time;durP1;ratioP1;P1;durP2;ratioP2;P2;SDS_P1;SDS_P2;PMS_P1;PMS_P2;Temp;Humidity;BMP_temperature;BMP_pressure;BME280_temperature;BME280_humidity;BME280_pressure;Samples;Min_cycle;Max_cycle;Signal;HPM_P1;HPM_P2
2023/11/15 00:00:00;;;;;;;;;;;;;;;17.00;48.86;100315.91;5056113;28;1178;-50
2023/11/15 00:02:25;;;;;;;;;;;;;;;16.58;49.74;100309.06;5074841;28;1038;-48
2023/11/15 00:04:51;;;;;;;;;;;;;;;16.42;50.05;100311.06;5073916;28;1034;-49
2023/11/15 00:07:16;;;;;;;;;;;;;;;16.35;50.50;100310.56;5057236;28;1856;-46
2023/11/15 00:09:42;;;;;;;;;;;;;;;17.55;47.46;100295.59;5054926;28;1066;-48
2023/11/15 00:12:07;;;;;;;;;;;;;;;16.79;49.03;100289.66;5073348;28;1269;-49
2023/11/15 00:14:33;;;;;;;;;;;;;;;16.51;49.70;100289.31;5068292;28;1070;-50
2023/11/15 00:16:58;;;;;;;;;;;;;;;16.29;50.21;100282.34;5074584;28;1906;-48
2023/11/15 00:19:30;;;;;;;;;;;;;;;17.51;47.69;100278.03;5061849;28;1122;-47
2023/11/15 00:21:56;;;;;;;;;;;;;;;16.95;48.62;100282.97;5055167;28;991;-49
2023/11/15 00:24:22;;;;;;;;;;;;;;;16.55;49.62;100273.91;5056963;28;1039;-49
2023/11/15 00:26:48;;;;;;;;;;;;;;;16.39;50.01;100278.69;5067618;28;1066;-49
2023/11/15 00:29:14;;;;;;;;;;;;;;;17.12;48.33;100282.53;5054663;28;1136;-47
2023/11/15 00:31:40;;;;;;;;;;;;;;;17.22;48.09;100293.47;5055387;28;1638;-49
2023/11/15 00:34:05;;;;;;;;;;;;;;;16.69;49.39;100279.59;5059341;28;1139;-45
2023/11/15 00:36:31;;;;;;;;;;;;;;;16.47;50.12;100269.88;5070940;28;1980;-49
2023/11/15 00:38:56;;;;;;;;;;;;;;;17.05;48.57;100266.38;5071735;28;1112;-47
2023/11/15 00:41:22;;;;;;;;;;;;;;;17.45;47.46;100258.84;5065954;28;1058;-48
2023/11/15 00:43:47;;;;;;;;;;;;;;;16.76;49.25;100250.72;5064471;28;1117;-48
2023/11/15 00:46:15;;;;;;;;;;;;;;;16.53;50.01;100243.22;5056928;28;1119;-48
2023/11/15 00:48:41;;;;;;;;;;;;;;;16.34;50.17;100229.34;5058286;28;1035;-49
2023/11/15 00:51:10;;;;;;;;;;;;;;;17.47;47.52;100233.00;5070035;28;1518;-48
2023/11/15 00:53:36;;;;;;;;;;;;;;;16.98;48.82;100232.94;5064639;28;1116;-47
2023/11/15 00:56:02;;;;;;;;;;;;;;;16.59;49.73;100231.91;5084685;28;1976;-48
2023/11/15 00:58:29;;;;;;;;;;;;;;;17.15;48.57;100231.69;5098286;28;1097;-47
2023/11/15 01:00:56;;;;;;;;;;;;;;;17.10;48.27;100230.63;5097649;28;1022;-48
2023/11/15 01:03:28;;;;;;;;;;;;;;;16.67;49.65;100218.66;5098045;28;987;-49
2023/11/15 01:05:57;;;;;;;;;;;;;;;16.40;50.05;100218.03;5090030;28;2405;-47
2023/11/15 01:08:25;;;;;;;;;;;;;;;17.52;47.69;100213.72;5078191;28;1119;-48
2023/11/15 01:10:51;;;;;;;;;;;;;;;16.92;48.93;100203.91;5069507;28;1488;-45
2023/11/15 01:13:17;;;;;;;;;;;;;;;16.57;49.59;100203.09;5083896;28;1501;-48
2023/11/15 01:15:42;;;;;;;;;;;;;;;16.69;49.57;100187.09;5098103;28;1906;-47
2023/11/15 01:18:08;;;;;;;;;;;;;;;17.40;47.72;100183.88;5084233;28;1233;-50
2023/11/15 01:20:34;;;;;;;;;;;;;;;16.77;49.23;100185.63;5098098;28;1126;-46
2023/11/15 01:23:00;;;;;;;;;;;;;;;16.84;49.41;100186.09;5097960;28;1229;-43
2023/11/15 01:25:30;;;;;;;;;;;;;;;17.52;47.42;100184.28;5079170;28;1146;-44
2023/11/15 01:27:56;;;;;;;;;;;;;;;16.89;49.18;100185.28;5080579;28;1069;-45
2023/11/15 01:30:23;;;;;;;;;;;;;;;16.59;49.71;100170.69;5088232;28;1386;-46
2023/11/15 01:32:48;;;;;;;;;;;;;;;16.46;50.03;100176.84;5079345;28;1544;-49
2023/11/15 01:35:16;;;;;;;;;;;;;;;17.46;47.48;100160.75;5079050;28;1042;-43
2023/11/15 01:37:42;;;;;;;;;;;;;;;16.80;49.27;100176.00;5068368;28;2628;-48
2023/11/15 01:40:07;;;;;;;;;;;;;;;16.53;50.05;100172.66;5077597;28;1058;-44
2023/11/15 01:42:33;;;;;;;;;;;;;;;16.96;49.19;100166.53;5090728;28;924;-45
2023/11/15 01:44:59;;;;;;;;;;;;;;;17.14;48.42;100173.19;5087853;28;1098;-50
2023/11/15 01:47:25;;;;;;;;;;;;;;;16.64;49.56;100178.88;5078884;28;1145;-49
2023/11/15 01:49:50;;;;;;;;;;;;;;;17.05;48.89;100194.16;5095448;28;1105;-48
2023/11/15 01:52:17;;;;;;;;;;;;;;;17.25;48.04;100195.84;5074775;28;1277;-46
2023/11/15 01:54:43;;;;;;;;;;;;;;;16.70;49.57;100185.94;5088082;28;1185;-46
2023/11/15 01:57:08;;;;;;;;;;;;;;;16.48;49.92;100189.19;5083391;28;1906;-51
2023/11/15 01:59:34;;;;;;;;;;;;;;;16.97;49.10;100187.41;5068692;28;1648;-49
2023/11/15 02:01:59;;;;;;;;;;;;;;;17.28;48.11;100168.63;5072075;28;1099;-44
2023/11/15 02:04:25;;;;;;;;;;;;;;;16.73;49.60;100171.66;5069641;28;1110;-45
2023/11/15 02:06:51;;;;;;;;;;;;;;;16.51;50.14;100168.56;5065344;28;2251;-46
2023/11/15 02:09:17;;;;;;;;;;;;;;;16.31;50.27;100173.09;5097016;28;1087;-47
2023/11/15 02:11:43;;;;;;;;;;;;;;;17.40;47.91;100167.38;5065630;28;1178;-48
2023/11/15 02:14:09;;;;;;;;;;;;;;;16.83;49.18;100170.75;5078231;28;1544;-48
2023/11/15 02:16:35;;;;;;;;;;;;;;;16.49;49.83;100170.78;5079966;28;1910;-50
2023/11/15 02:19:00;;;;;;;;;;;;;;;17.17;48.40;100169.06;5065812;28;1224;-49
2023/11/15 02:21:26;;;;;;;;;;;;;;;17.08;48.43;100166.09;5079687;28;1053;-51
2023/11/15 02:23:51;;;;;;;;;;;;;;;16.63;49.61;100162.69;5086726;28;1073;-49
2023/11/15 02:26:19;;;;;;;;;;;;;;;16.35;50.23;100165.94;5083731;28;1000;-49
2023/11/15 02:28:44;;;;;;;;;;;;;;;16.38;50.58;100170.03;5068942;28;1134;-52
2023/11/15 02:31:10;;;;;;;;;;;;;;;17.45;47.62;100176.38;5061233;28;1273;-49
2023/11/15 02:33:36;;;;;;;;;;;;;;;16.72;49.53;100181.00;5076104;28;1050;-45
2023/11/15 02:36:01;;;;;;;;;;;;;;;16.41;50.10;100172.22;5071620;28;1906;-48
2023/11/15 02:38:27;;;;;;;;;;;;;;;17.39;47.97;100166.59;5058755;28;1289;-47
2023/11/15 02:40:53;;;;;;;;;;;;;;;17.19;48.24;100161.31;5076390;28;1149;-47
2023/11/15 02:43:18;;;;;;;;;;;;;;;16.66;49.63;100157.47;5086676;28;1114;-45
2023/11/15 02:45:44;;;;;;;;;;;;;;;16.39;50.41;100158.78;5096202;28;1041;-45
2023/11/15 02:48:09;;;;;;;;;;;;;;;16.85;49.06;100164.97;5096393;28;1080;-47
2023/11/15 02:50:35;;;;;;;;;;;;;;;17.26;48.02;100156.28;5068406;28;2070;-48
2023/11/15 02:53:00;;;;;;;;;;;;;;;16.65;49.63;100163.22;5086092;28;1087;-49
2023/11/15 02:55:26;;;;;;;;;;;;;;;17.40;47.77;100159.16;5077474;28;1977;-46
2023/11/15 02:57:52;;;;;;;;;;;;;;;16.98;48.87;100172.53;5085871;28;1065;-45
2023/11/15 03:00:17;;;;;;;;;;;;;;;16.60;49.66;100162.16;5061784;28;1275;-47
2023/11/15 03:02:43;;;;;;;;;;;;;;;16.36;50.36;100156.63;5075734;28;1130;-50
2023/11/15 03:05:09;;;;;;;;;;;;;;;16.78;49.50;100151.56;5095276;28;1037;-48
2023/11/15 03:07:34;;;;;;;;;;;;;;;17.53;47.56;100150.19;5085826;28;2693;-44
2023/11/15 03:10:00;;;;;;;;;;;;;;;16.76;49.13;100149.13;5072175;28;1174;-43
2023/11/15 03:12:26;;;;;;;;;;;;;;;16.46;50.17;100146.66;5075784;28;1129;-47
2023/11/15 03:14:51;;;;;;;;;;;;;;;16.36;50.44;100148.38;5060211;28;1690;-44
2023/11/15 03:17:17;;;;;;;;;;;;;;;17.50;47.55;100133.47;5075771;28;1902;-44
2023/11/15 03:19:44;;;;;;;;;;;;;;;16.79;49.11;100131.25;5059486;28;2135;-45
2023/11/15 03:22:09;;;;;;;;;;;;;;;16.44;50.02;100125.00;5095825;28;1118;-46
2023/11/15 03:24:35;;;;;;;;;;;;;;;16.28;50.56;100120.75;5095784;28;1046;-45
2023/11/15 03:27:00;;;;;;;;;;;;;;;17.54;47.55;100120.75;5064807;28;1531;-44
2023/11/15 03:29:26;;;;;;;;;;;;;;;17.01;48.64;100100.56;5090549;28;1039;-50
2023/11/15 03:31:51;;;;;;;;;;;;;;;16.58;49.80;100111.44;5095703;28;1346;-45
2023/11/15 03:34:17;;;;;;;;;;;;;;;16.37;50.22;100106.13;5079911;28;1186;-46
2023/11/15 03:36:43;;;;;;;;;;;;;;;16.57;49.91;100107.03;5075499;28;2489;-49
2023/11/15 03:39:08;;;;;;;;;;;;;;;17.34;48.03;100095.19;5087999;28;1062;-46
2023/11/15 03:41:34;;;;;;;;;;;;;;;16.68;49.56;100085.81;5087292;28;1110;-44
2023/11/15 03:44:00;;;;;;;;;;;;;;;16.45;50.08;100092.88;5090594;28;979;-48
2023/11/15 03:46:26;;;;;;;;;;;;;;;16.43;50.41;100099.47;5087265;28;1149;-47
2023/11/15 03:48:52;;;;;;;;;;;;;;;17.61;47.32;100093.72;5057095;28;1085;-45
2023/11/15 03:51:17;;;;;;;;;;;;;;;16.81;49.21;100096.06;5084165;28;924;-46
2023/11/15 03:53:43;;;;;;;;;;;;;;;16.52;49.87;100105.19;5079771;28;1132;-48
2023/11/15 03:56:09;;;;;;;;;;;;;;;16.30;50.56;100086.44;5075188;28;1963;-49
2023/11/15 03:58:34;;;;;;;;;;;;;;;16.86;49.24;100090.53;5059088;28;1106;-46
2023/11/15 04:01:00;;;;;;;;;;;;;;;17.17;48.35;100086.63;5087127;28;1006;-44
2023/11/15 04:03:26;;;;;;;;;;;;;;;16.57;50.01;100096.06;5087182;28;1043;-46
2023/11/15 04:05:52;;;;;;;;;;;;;;;16.34;50.42;100103.97;5076174;28;1879;-44
2023/11/15 04:08:17;;;;;;;;;;;;;;;17.07;48.94;100093.06;5084061;28;1010;-43
2023/11/15 04:10:43;;;;;;;;;;;;;;;17.28;48.15;100093.63;5079272;28;1035;-48
2023/11/15 04:13:09;;;;;;;;;;;;;;;16.69;49.43;100098.41;5074514;28;1470;-44
2023/11/15 04:15:35;;;;;;;;;;;;;;;16.42;50.20;100100.59;5093043;28;1905;-45
2023/11/15 04:18:02;;;;;;;;;;;;;;;17.51;47.85;100100.19;5085425;28;1066;-48
2023/11/15 04:20:29;;;;;;;;;;;;;;;16.99;48.82;100108.25;5095615;28;1130;-46
2023/11/15 04:22:54;;;;;;;;;;;;;;;16.61;49.69;100119.06;5094221;28;1099;-47
2023/11/15 04:25:20;;;;;;;;;;;;;;;16.42;50.23;100121.72;5079170;28;1077;-46
2023/11/15 04:27:46;;;;;;;;;;;;;;;17.40;47.84;100123.41;5081009;28;1107;-46
2023/11/15 04:30:11;;;;;;;;;;;;;;;16.73;49.39;100122.25;5078732;28;939;-48
2023/11/15 04:32:37;;;;;;;;;;;;;;;16.48;49.92;100112.34;5092309;28;1031;-49
2023/11/15 04:35:03;;;;;;;;;;;;;;;16.36;50.13;100103.69;5089485;28;1058;-46
2023/11/15 04:37:29;;;;;;;;;;;;;;;17.40;48.04;100088.53;5080817;28;2482;-50
2023/11/15 04:39:54;;;;;;;;;;;;;;;17.08;48.74;100091.94;5089306;28;1054;-46
2023/11/15 04:42:20;;;;;;;;;;;;;;;16.63;49.77;100091.34;5081235;28;1132;-49
2023/11/15 04:44:45;;;;;;;;;;;;;;;17.37;48.09;100080.03;5078501;28;1042;-44
2023/11/15 04:47:11;;;;;;;;;;;;;;;17.16;48.54;100072.06;5096124;28;1054;-46
2023/11/15 04:49:37;;;;;;;;;;;;;;;16.73;49.42;100072.84;5086797;28;995;-50
2023/11/15 04:52:02;;;;;;;;;;;;;;;16.48;50.04;100086.81;5086407;28;1034;-49
2023/11/15 04:54:28;;;;;;;;;;;;;;;16.32;50.35;100073.25;5087677;28;1422;-46
2023/11/15 04:56:54;;;;;;;;;;;;;;;17.33;48.22;100071.56;5078897;28;1969;-44
2023/11/15 04:59:19;;;;;;;;;;;;;;;17.25;48.38;100066.72;5082199;28;1129;-50
2023/11/15 05:01:45;;;;;;;;;;;;;;;16.69;49.51;100060.81;5095893;28;1170;-50
2023/11/15 05:04:12;;;;;;;;;;;;;;;16.53;50.11;100060.13;5092702;28;948;-49
2023/11/15 05:06:37;;;;;;;;;;;;;;;17.73;47.36;100054.78;5080576;28;2448;-45
2023/11/15 05:09:03;;;;;;;;;;;;;;;16.96;49.12;100053.09;5071168;28;1238;-47
2023/11/15 05:11:28;;;;;;;;;;;;;;;16.64;49.87;100049.88;5093320;28;1138;-50
2023/11/15 05:13:54;;;;;;;;;;;;;;;16.46;50.31;100054.16;5085711;28;1398;-47
2023/11/15 05:16:19;;;;;;;;;;;;;;;16.55;50.43;100066.16;5095252;28;1905;-49
2023/11/15 05:18:45;;;;;;;;;;;;;;;17.62;47.46;100062.38;5093157;28;1169;-47
2023/11/15 05:21:10;;;;;;;;;;;;;;;16.85;49.39;100057.88;5079691;28;1027;-50
2023/11/15 05:23:36;;;;;;;;;;;;;;;16.54;50.09;100045.31;5088938;28;1107;-49
2023/11/15 05:26:02;;;;;;;;;;;;;;;16.38;50.52;100050.16;5091308;28;1074;-49
2023/11/15 05:28:27;;;;;;;;;;;;;;;16.22;50.97;100051.41;5080580;28;994;-51
2023/11/15 05:30:53;;;;;;;;;;;;;;;17.25;48.50;100028.25;5077378;28;1031;-45
2023/11/15 05:33:19;;;;;;;;;;;;;;;16.97;48.83;100033.59;5077710;28;1404;-42
2023/11/15 05:35:45;;;;;;;;;;;;;;;16.63;48.41;100040.00;5083615;28;1902;-43
2023/11/15 05:38:10;;;;;;;;;;;;;;;16.45;47.63;100027.84;5097641;28;2779;-45
2023/11/15 05:40:36;;;;;;;;;;;;;;;16.39;47.09;100027.06;5079741;28;1278;-43
2023/11/15 05:43:01;;;;;;;;;;;;;;;16.23;46.73;100025.63;5089807;28;1062;-47
2023/11/15 05:45:26;;;;;;;;;;;;;;;16.19;46.38;100021.81;5080196;28;1352;-46
2023/11/15 05:47:52;;;;;;;;;;;;;;;16.14;46.01;100027.34;5088339;28;1426;-46
2023/11/15 05:50:18;;;;;;;;;;;;;;;16.05;45.78;100022.47;5086759;28;1058;-47
2023/11/15 05:52:43;;;;;;;;;;;;;;;15.90;45.92;100017.94;5081622;28;896;-47
2023/11/15 05:55:11;;;;;;;;;;;;;;;15.87;45.87;100023.19;5086807;28;1039;-45
2023/11/15 05:57:37;;;;;;;;;;;;;;;15.79;45.71;100016.38;5097107;28;1970;-46
2023/11/15 06:00:14;;;;;;;;;;;;;;;15.82;45.43;100009.50;5097320;28;1113;-48
2023/11/15 06:02:40;;;;;;;;;;;;;;;15.71;45.27;100012.31;5084571;28;956;-46
2023/11/15 06:05:06;;;;;;;;;;;;;;;15.70;45.42;100001.66;5095208;28;1000;-44
2023/11/15 06:07:32;;;;;;;;;;;;;;;15.63;45.16;99996.47;5076576;28;2255;-44
2023/11/15 06:09:57;;;;;;;;;;;;;;;15.59;45.29;99998.16;5078896;28;1113;-45
2023/11/15 06:12:23;;;;;;;;;;;;;;;15.58;45.09;99999.25;5096666;28;1109;-47
2023/11/15 06:14:48;;;;;;;;;;;;;;;15.49;44.97;99992.75;5095174;28;1006;-47
2023/11/15 06:17:14;;;;;;;;;;;;;;;15.54;44.81;99989.97;5088872;28;1917;-44
2023/11/15 06:19:39;;;;;;;;;;;;;;;15.39;44.85;99985.44;5078476;28;1182;-42
2023/11/15 06:22:05;;;;;;;;;;;;;;;15.39;44.90;99997.19;5096747;28;1062;-44
2023/11/15 06:24:32;;;;;;;;;;;;;;;16.05;46.44;99992.31;5096682;28;1085;-48
2023/11/15 06:26:57;;;;;;;;;;;;;;;15.76;46.95;99988.72;5088559;28;1129;-45
2023/11/15 06:29:23;;;;;;;;;;;;;;;15.55;46.52;99995.16;5087224;28;1142;-48
2023/11/15 06:31:48;;;;;;;;;;;;;;;15.51;46.06;99991.34;5083385;28;1063;-45
2023/11/15 06:34:14;;;;;;;;;;;;;;;15.47;45.88;99994.97;5096343;28;1066;-44
2023/11/15 06:36:43;;;;;;;;;;;;;;;15.35;45.90;99987.09;5088253;28;1994;-44
2023/11/15 06:39:10;;;;;;;;;;;;;;;15.39;45.48;99967.06;5088012;28;1365;-47
2023/11/15 06:41:38;;;;;;;;;;;;;;;15.43;45.17;99958.28;5093664;28;1011;-47
2023/11/15 06:44:05;;;;;;;;;;;;;;;15.33;44.91;99959.16;5096354;28;1075;-46
2023/11/15 06:46:31;;;;;;;;;;;;;;;15.24;45.09;99953.47;5091053;28;1010;-48
2023/11/15 06:48:57;;;;;;;;;;;;;;;15.26;44.71;99951.25;5076035;28;1030;-44
2023/11/15 06:51:23;;;;;;;;;;;;;;;15.24;44.76;99953.47;5077575;28;1000;-49
2023/11/15 06:53:49;;;;;;;;;;;;;;;15.19;44.81;99937.06;5087346;28;1185;-50
2023/11/15 06:56:14;;;;;;;;;;;;;;;15.25;44.55;99943.34;5081876;28;1976;-50
2023/11/15 06:58:40;;;;;;;;;;;;;;;15.20;44.29;99955.97;5086736;28;1065;-52
2023/11/15 07:01:07;;;;;;;;;;;;;;;15.20;44.40;99955.16;5089316;28;1031;-51
2023/11/15 07:03:32;;;;;;;;;;;;;;;15.17;44.23;99950.25;5079014;28;1038;-48
2023/11/15 07:05:58;;;;;;;;;;;;;;;15.69;46.08;99937.78;5079742;28;1856;-51
2023/11/15 07:08:23;;;;;;;;;;;;;;;15.39;46.13;99945.16;5085629;28;1104;-52
2023/11/15 07:10:49;;;;;;;;;;;;;;;15.38;45.40;99924.34;5087029;28;1101;-49
2023/11/15 07:13:16;;;;;;;;;;;;;;;15.34;45.32;99939.69;5088647;28;1047;-51
2023/11/15 07:15:44;;;;;;;;;;;;;;;15.25;44.86;99943.34;5075552;28;1913;-50
2023/11/15 07:18:10;;;;;;;;;;;;;;;15.20;44.67;99949.69;5078357;28;1201;-51
2023/11/15 07:20:37;;;;;;;;;;;;;;;15.08;44.84;99944.53;5095896;28;1042;-50
2023/11/15 07:23:03;;;;;;;;;;;;;;;15.08;44.87;99943.72;5079262;28;1109;-50
2023/11/15 07:25:29;;;;;;;;;;;;;;;15.03;44.61;99948.13;5076095;28;1058;-52
2023/11/15 07:27:56;;;;;;;;;;;;;;;15.17;44.38;99944.78;5075129;28;1035;-52
2023/11/15 07:30:22;;;;;;;;;;;;;;;14.97;44.43;99949.28;5085906;28;1004;-52
2023/11/15 07:32:48;;;;;;;;;;;;;;;15.00;44.52;99939.69;5082373;28;1130;-51
2023/11/15 07:35:14;;;;;;;;;;;;;;;14.92;44.29;99927.41;5095215;28;1117;-51
2023/11/15 07:37:40;;;;;;;;;;;;;;;15.21;45.16;99932.97;5091979;28;1903;-50
2023/11/15 07:40:12;;;;;;;;;;;;;;;15.45;46.16;99929.50;5081558;28;1106;-48
2023/11/15 07:42:39;;;;;;;;;;;;;;;15.18;46.01;99919.00;5085300;28;994;-49
2023/11/15 07:45:05;;;;;;;;;;;;;;;15.10;45.50;99922.38;5100224;28;1105;-47
2023/11/15 07:47:34;;;;;;;;;;;;;;;15.12;45.20;99920.16;5086302;28;1106;-46
2023/11/15 07:50:02;;;;;;;;;;;;;;;15.02;45.20;99910.91;5087517;28;1130;-48
2023/11/15 07:52:30;;;;;;;;;;;;;;;15.08;44.63;99910.88;5082204;28;1069;-48
2023/11/15 07:54:56;;;;;;;;;;;;;;;14.96;44.82;99911.25;5091564;28;1081;-48
2023/11/15 07:57:22;;;;;;;;;;;;;;;14.94;44.56;99910.69;5085663;28;1913;-50
2023/11/15 07:59:47;;;;;;;;;;;;;;;15.46;45.24;99913.84;5099160;28;1014;-45
2023/11/15 08:02:13;;;;;;;;;;;;;;;15.53;46.66;99912.44;5099268;28;1033;-51
2023/11/15 08:04:38;;;;;;;;;;;;;;;15.23;46.36;99917.06;5095786;28;1186;-49
2023/11/15 08:07:04;;;;;;;;;;;;;;;15.15;45.86;99908.63;5084482;28;2297;-50
2023/11/15 08:09:32;;;;;;;;;;;;;;;15.17;45.27;99900.97;5091279;28;1050;-48
2023/11/15 08:11:58;;;;;;;;;;;;;;;15.09;45.25;99898.81;5094118;28;1229;-49
2023/11/15 08:14:25;;;;;;;;;;;;;;;15.06;44.91;99895.53;5079759;28;1010;-50
2023/11/15 08:16:50;;;;;;;;;;;;;;;14.97;45.10;99894.53;5087088;28;1910;-49
2023/11/15 08:19:18;;;;;;;;;;;;;;;15.95;46.42;99906.59;5079332;28;1166;-49
2023/11/15 08:21:44;;;;;;;;;;;;;;;15.43;46.88;99920.75;5087811;28;1197;-46
2023/11/15 08:24:09;;;;;;;;;;;;;;;15.26;46.76;99909.38;5085631;28;1030;-51
2023/11/15 08:26:35;;;;;;;;;;;;;;;15.19;46.01;99904.22;5091014;28;1368;-48
2023/11/15 08:29:02;;;;;;;;;;;;;;;15.16;45.54;99915.75;5083457;28;1045;-45
2023/11/15 08:31:28;;;;;;;;;;;;;;;15.11;45.54;99918.50;5078871;28;1035;-50
2023/11/15 08:33:54;;;;;;;;;;;;;;;15.06;45.17;99914.69;5078918;28;1002;-48
2023/11/15 08:36:19;;;;;;;;;;;;;;;15.06;44.83;99900.22;5098760;28;2443;-45
2023/11/15 08:38:45;;;;;;;;;;;;;;;15.04;44.63;99899.69;5084438;28;1129;-48
2023/11/15 08:41:14;;;;;;;;;;;;;;;15.33;45.57;99898.91;5089120;28;904;-48
2023/11/15 08:43:40;;;;;;;;;;;;;;;15.47;47.01;99891.66;5085855;28;1106;-46
2023/11/15 08:46:05;;;;;;;;;;;;;;;15.22;46.52;99887.19;5098865;28;1022;-46
2023/11/15 08:48:33;;;;;;;;;;;;;;;15.20;45.82;99894.91;5084686;28;1130;-46
2023/11/15 08:51:00;;;;;;;;;;;;;;;15.09;45.81;99887.88;5098271;28;1070;-44
2023/11/15 08:53:27;;;;;;;;;;;;;;;15.15;45.12;99883.97;5082458;28;1100;-47
2023/11/15 08:55:53;;;;;;;;;;;;;;;15.08;44.87;99886.22;5079631;28;1898;-44
2023/11/15 08:58:19;;;;;;;;;;;;;;;14.99;45.13;99881.34;5098063;28;1061;-48
2023/11/15 09:00:46;;;;;;;;;;;;;;;15.00;44.67;99888.47;5097176;28;1140;-48
2023/11/15 09:03:11;;;;;;;;;;;;;;;14.91;44.87;99881.97;5085881;28;1119;-46
2023/11/15 09:05:37;;;;;;;;;;;;;;;15.81;46.59;99879.03;5096274;28;991;-43
2023/11/15 09:08:03;;;;;;;;;;;;;;;15.33;46.87;99883.31;5086044;28;2621;-46
2023/11/15 09:10:29;;;;;;;;;;;;;;;15.23;46.15;99880.63;5097887;28;1106;-48
2023/11/15 09:12:56;;;;;;;;;;;;;;;15.17;45.74;99874.38;5098130;28;1125;-49
2023/11/15 09:15:24;;;;;;;;;;;;;;;15.05;45.84;99872.03;5077628;28;1097;-48
2023/11/15 09:17:50;;;;;;;;;;;;;;;15.69;46.41;99863.78;5091611;28;1913;-47
2023/11/15 09:20:19;;;;;;;;;;;;;;;15.40;46.62;99864.63;5090617;28;1146;-49
2023/11/15 09:22:54;;;;;;;;;;;;;;;15.24;46.54;99860.38;5090922;28;1062;-44
2023/11/15 09:25:23;;;;;;;;;;;;;;;15.15;46.01;99849.22;5086728;28;1018;-42
2023/11/15 09:27:59;;;;;;;;;;;;;;;15.06;45.64;99853.66;5089178;28;1076;-46
2023/11/15 09:30:25;;;;;;;;;;;;;;;15.08;45.41;99842.41;5092830;28;1018;-45
2023/11/15 09:32:50;;;;;;;;;;;;;;;15.02;45.37;99853.41;5092971;28;1138;-44
2023/11/15 09:35:16;;;;;;;;;;;;;;;15.08;44.81;99856.09;5091574;28;1181;-49
2023/11/15 09:37:42;;;;;;;;;;;;;;;15.05;44.62;99833.69;5093609;28;1990;-47
2023/11/15 09:40:12;;;;;;;;;;;;;;;14.93;44.69;99830.50;5096413;28;1121;-50
2023/11/15 09:42:42;;;;;;;;;;;;;;;14.94;44.55;99834.88;5095087;28;1168;-45
2023/11/15 09:45:11;;;;;;;;;;;;;;;15.16;45.15;99822.63;5097671;28;1401;-48
2023/11/15 09:47:37;;;;;;;;;;;;;;;15.59;46.88;99821.97;5096321;28;1117;-48
2023/11/15 09:50:03;;;;;;;;;;;;;;;15.32;46.50;99824.16;5097511;28;1019;-45
2023/11/15 09:52:29;;;;;;;;;;;;;;;15.21;46.10;99825.34;5078398;28;1378;-51
2023/11/15 09:54:55;;;;;;;;;;;;;;;15.15;45.84;99816.34;5091540;28;1343;-51
2023/11/15 09:57:20;;;;;;;;;;;;;;;15.10;45.60;99829.28;5078158;28;1914;-50
2023/11/15 09:59:46;;;;;;;;;;;;;;;15.01;45.30;99829.06;5087573;28;1421;-48
2023/11/15 10:02:11;;;;;;;;;;;;;;;15.00;45.30;99841.94;5077171;28;1019;-50
2023/11/15 10:04:37;;;;;;;;;;;;;;;14.97;45.04;99831.56;5094658;28;1131;-50
2023/11/15 10:07:02;;;;;;;;;;;;;;;14.97;44.87;99830.72;5076926;28;1941;-46
2023/11/15 10:09:31;;;;;;;;;;;;;;;14.89;45.10;99824.75;5090027;28;1098;-49
2023/11/15 10:11:56;;;;;;;;;;;;;;;14.89;44.96;99829.44;5094918;28;1174;-48
2023/11/15 10:14:22;;;;;;;;;;;;;;;14.85;44.82;99825.63;5065182;28;1278;-52
2023/11/15 10:16:50;;;;;;;;;;;;;;;14.77;44.99;99820.75;5087717;28;1910;-50
2023/11/15 10:19:26;;;;;;;;;;;;;;;15.70;46.30;99821.56;5091858;28;1114;-48
2023/11/15 10:22:04;;;;;;;;;;;;;;;15.25;47.04;99809.97;5076819;28;1055;-50
2023/11/15 10:24:31;;;;;;;;;;;;;;;15.16;46.27;99807.00;5083858;28;1131;-48
2023/11/15 10:27:04;;;;;;;;;;;;;;;15.04;46.16;99796.44;5082254;28;1110;-49
2023/11/15 10:29:31;;;;;;;;;;;;;;;15.08;45.66;99810.38;5078580;28;1052;-48
2023/11/15 10:31:59;;;;;;;;;;;;;;;15.04;45.35;99810.16;5089790;28;1197;-49
2023/11/15 10:34:29;;;;;;;;;;;;;;;15.78;46.21;99814.63;5088896;28;942;-48
2023/11/15 10:37:01;;;;;;;;;;;;;;;15.36;46.85;99800.56;5092494;28;2432;-44
2023/11/15 10:39:28;;;;;;;;;;;;;;;15.17;46.61;99799.63;5087726;28;1217;-43
2023/11/15 10:41:55;;;;;;;;;;;;;;;15.20;46.04;99793.56;5086799;28;1133;-46
2023/11/15 10:44:21;;;;;;;;;;;;;;;15.05;45.70;99794.53;5069625;28;1032;-47
2023/11/15 10:46:47;;;;;;;;;;;;;;;15.06;45.62;99801.63;5078421;28;1186;-47
2023/11/15 10:49:13;;;;;;;;;;;;;;;14.96;45.65;99805.28;5084878;28;1232;-50
2023/11/15 10:51:40;;;;;;;;;;;;;;;15.68;46.30;99807.34;5075773;28;1090;-46
2023/11/15 10:54:08;;;;;;;;;;;;;;;15.36;46.54;99800.56;5094678;28;1033;-49
2023/11/15 10:56:34;;;;;;;;;;;;;;;15.21;46.37;99812.47;5072841;28;1987;-46
2023/11/15 10:59:00;;;;;;;;;;;;;;;15.18;45.69;99801.25;5070020;28;1147;-44
2023/11/15 11:01:29;;;;;;;;;;;;;;;15.10;45.77;99797.22;5059878;28;1091;-50
2023/11/15 11:03:55;;;;;;;;;;;;;;;15.14;45.27;99805.69;5058675;28;1066;-44
2023/11/15 11:06:39;;;;;;;;;;;;;;;14.96;45.36;99815.41;5089579;28;2407;-47
2023/11/15 11:09:12;;;;;;;;;;;;;;;14.96;45.27;99797.06;5090033;28;1129;-46
2023/11/15 11:12:10;;;;;;;;;;;;;;;14.97;44.89;99808.81;5075828;28;1173;-42
2023/11/15 11:14:35;;;;;;;;;;;;;;;14.94;44.84;99810.25;5073311;28;1249;-49
2023/11/15 11:17:02;;;;;;;;;;;;;;;14.94;44.81;99815.72;5092542;28;1905;-48
2023/11/15 11:19:28;;;;;;;;;;;;;;;14.85;44.97;99818.22;5081784;28;1047;-47
2023/11/15 11:22:03;;;;;;;;;;;;;;;14.86;44.74;99814.38;5091961;28;1129;-43
2023/11/15 11:24:45;;;;;;;;;;;;;;;15.71;46.18;99817.72;5086828;28;1046;-47
2023/11/15 11:27:11;;;;;;;;;;;;;;;15.35;47.07;99817.28;5088992;28;1130;-49
2023/11/15 11:29:51;;;;;;;;;;;;;;;15.21;46.67;99825.34;5075748;28;1014;-47
2023/11/15 11:32:17;;;;;;;;;;;;;;;15.06;46.21;99829.03;5075254;28;1042;-43
2023/11/15 11:35:01;;;;;;;;;;;;;;;15.12;45.59;99813.38;5088370;28;1094;-45
2023/11/15 11:37:47;;;;;;;;;;;;;;;15.01;45.73;99821.69;5088006;28;1958;-48
2023/11/15 11:40:17;;;;;;;;;;;;;;;14.94;45.27;99836.78;5078075;28;1086;-47
2023/11/15 11:42:47;;;;;;;;;;;;;;;14.99;45.15;99844.97;5075267;28;856;-45
2023/11/15 11:45:14;;;;;;;;;;;;;;;14.92;45.01;99849.94;5094506;28;1106;-46
2023/11/15 11:47:45;;;;;;;;;;;;;;;15.63;46.17;99848.50;5095750;28;1022;-47
2023/11/15 11:50:16;;;;;;;;;;;;;;;15.19;46.87;99865.88;5082420;28;1067;-44
2023/11/15 11:52:41;;;;;;;;;;;;;;;15.16;46.04;99858.25;5095305;28;1098;-48
2023/11/15 11:55:08;;;;;;;;;;;;;;;15.09;45.75;99865.97;5087767;28;1011;-46
2023/11/15 11:57:34;;;;;;;;;;;;;;;14.96;45.87;99870.97;5057666;28;1921;-43
2023/11/15 12:00:12;;;;;;;;;;;;;;;14.96;45.45;99879.19;5082696;28;1042;-45
2023/11/15 12:02:37;;;;;;;;;;;;;;;14.96;45.39;99881.13;5081946;28;1105;-47
2023/11/15 12:05:04;;;;;;;;;;;;;;;14.92;45.04;99894.56;5086269;28;1170;-45
2023/11/15 12:07:30;;;;;;;;;;;;;;;14.90;45.01;99888.56;5088816;28;1931;-46
2023/11/15 12:10:10;;;;;;;;;;;;;;;14.84;45.26;99889.66;5077063;28;1066;-48
2023/11/15 12:12:36;;;;;;;;;;;;;;;14.81;45.10;99906.66;5095245;28;1034;-44
2023/11/15 12:15:02;;;;;;;;;;;;;;;15.72;46.57;99918.03;5082170;28;1026;-47
2023/11/15 12:17:40;;;;;;;;;;;;;;;15.49;47.53;99927.00;5084733;28;1918;-49
2023/11/15 12:20:08;;;;;;;;;;;;;;;15.27;47.24;99916.50;5088661;28;1125;-43
2023/11/15 12:22:37;;;;;;;;;;;;;;;15.09;46.80;99912.50;5088373;28;1207;-46
2023/11/15 12:25:08;;;;;;;;;;;;;;;15.13;46.42;99919.06;5081828;28;1095;-46
2023/11/15 12:27:34;;;;;;;;;;;;;;;15.03;46.27;99928.97;5082892;28;1055;-47
2023/11/15 12:29:59;;;;;;;;;;;;;;;14.92;45.99;99930.13;5093870;28;1129;-48
2023/11/15 12:32:25;;;;;;;;;;;;;;;15.73;47.48;99932.53;5098017;28;1098;-50
2023/11/15 12:34:50;;;;;;;;;;;;;;;15.38;47.62;99938.03;5099002;28;1276;-45
2023/11/15 12:37:16;;;;;;;;;;;;;;;15.22;47.17;99941.97;5067984;28;1989;-46
2023/11/15 12:39:41;;;;;;;;;;;;;;;15.11;46.92;99951.38;5091137;28;1343;-49
2023/11/15 12:42:07;;;;;;;;;;;;;;;15.09;46.51;99948.91;5097774;28;1125;-45
2023/11/15 12:44:45;;;;;;;;;;;;;;;15.08;46.20;99957.41;5092251;28;1075;-43
2023/11/15 12:47:11;;;;;;;;;;;;;;;15.02;45.79;99949.22;5078412;28;1032;-49
2023/11/15 12:49:37;;;;;;;;;;;;;;;15.20;46.17;99955.16;5078998;28;1042;-44